sensor_id;sensor_type;location;lat;lon;timestamp;pressure;altitude;pressure_sealevel;temperature;humidity
54512;BME280;40419;47.438;19.026;2023-02-19T00:01:44;99921.19;;;10.06;89.85
54512;BME280;40419;47.438;19.026;2023-02-19T00:04:15;99910.09;;;9.94;91.13
54512;BME280;40419;47.438;19.026;2023-02-19T00:06:45;99913.03;;;9.99;90.76
54512;BME280;40419;47.438;19.026;2023-02-19T00:09:12;99903.19;;;9.91;91.23
54512;BME280;40419;47.438;19.026;2023-02-19T00:11:41;99906.28;;;9.88;91.45
54512;BME280;40419;47.438;19.026;2023-02-19T00:14:07;99909.84;;;9.89;91.71
54512;BME280;40419;47.438;19.026;2023-02-19T00:16:38;99901.34;;;9.92;91.61
54512;BME280;40419;47.438;19.026;2023-02-19T00:19:07;99900.09;;;9.94;91.87
54512;BME280;40419;47.438;19.026;2023-02-19T00:21:35;99912.78;;;9.94;91.47
54512;BME280;40419;47.438;19.026;2023-02-19T00:24:03;99912.09;;;9.85;91.86
54512;BME280;40419;47.438;19.026;2023-02-19T00:26:29;99911.28;;;9.85;92.66
54512;BME280;40419;47.438;19.026;2023-02-19T00:28:56;99906.50;;;9.87;92.55
54512;BME280;40419;47.438;19.026;2023-02-19T00:31:27;99904.88;;;9.92;92.43
54512;BME280;40419;47.438;19.026;2023-02-19T00:33:58;99891.94;;;9.88;92.30
54512;BME280;40419;47.438;19.026;2023-02-19T00:36:25;99902.38;;;9.91;92.29
54512;BME280;40419;47.438;19.026;2023-02-19T00:38:54;99903.28;;;10.05;91.30
54512;BME280;40419;47.438;19.026;2023-02-19T00:41:22;99894.25;;;9.91;91.87
54512;BME280;40419;47.438;19.026;2023-02-19T00:46:21;99886.97;;;9.91;92.12
54512;BME280;40419;47.438;19.026;2023-02-19T00:48:47;99893.84;;;9.94;92.09
54512;BME280;40419;47.438;19.026;2023-02-19T00:51:13;99883.25;;;9.92;92.07
54512;BME280;40419;47.438;19.026;2023-02-19T00:53:41;99887.22;;;9.97;92.28
54512;BME280;40419;47.438;19.026;2023-02-19T00:56:10;99890.34;;;10.00;92.20
54512;BME280;40419;47.438;19.026;2023-02-19T00:58:38;99890.94;;;9.96;92.53
54512;BME280;40419;47.438;19.026;2023-02-19T01:01:06;99891.34;;;9.92;92.82
54512;BME280;40419;47.438;19.026;2023-02-19T01:03:33;99908.91;;;10.03;93.07
54512;BME280;40419;47.438;19.026;2023-02-19T01:06:02;99906.34;;;9.95;93.46
54512;BME280;40419;47.438;19.026;2023-02-19T01:08:32;99905.66;;;9.86;94.21
54512;BME280;40419;47.438;19.026;2023-02-19T01:11:01;99905.16;;;10.04;93.75
54512;BME280;40419;47.438;19.026;2023-02-19T01:13:29;99907.41;;;10.01;93.62
54512;BME280;40419;47.438;19.026;2023-02-19T01:16:07;99899.66;;;9.91;94.49
54512;BME280;40419;47.438;19.026;2023-02-19T01:18:33;99903.97;;;9.85;94.93
54512;BME280;40419;47.438;19.026;2023-02-19T01:21:11;99898.38;;;9.87;94.70
54512;BME280;40419;47.438;19.026;2023-02-19T01:23:37;99898.56;;;9.85;94.67
54512;BME280;40419;47.438;19.026;2023-02-19T01:26:09;99912.41;;;9.97;94.67
54512;BME280;40419;47.438;19.026;2023-02-19T01:28:38;99903.59;;;9.88;94.48
54512;BME280;40419;47.438;19.026;2023-02-19T01:31:07;99914.19;;;9.83;95.29
54512;BME280;40419;47.438;19.026;2023-02-19T01:33:37;99912.88;;;9.79;95.52
54512;BME280;40419;47.438;19.026;2023-02-19T01:36:05;99905.97;;;9.70;95.55
54512;BME280;40419;47.438;19.026;2023-02-19T01:38:32;99909.34;;;9.79;95.81
54512;BME280;40419;47.438;19.026;2023-02-19T01:41:02;99911.16;;;9.71;96.13
54512;BME280;40419;47.438;19.026;2023-02-19T01:43:32;99908.44;;;9.65;96.24
54512;BME280;40419;47.438;19.026;2023-02-19T01:46:01;99913.25;;;9.69;95.97
54512;BME280;40419;47.438;19.026;2023-02-19T01:48:35;99915.88;;;9.63;96.44
54512;BME280;40419;47.438;19.026;2023-02-19T01:51:13;99907.66;;;9.49;97.41
54512;BME280;40419;47.438;19.026;2023-02-19T01:53:44;99909.56;;;9.55;97.36
54512;BME280;40419;47.438;19.026;2023-02-19T01:56:16;99904.16;;;9.55;97.95
54512;BME280;40419;47.438;19.026;2023-02-19T01:58:46;99901.38;;;9.42;99.06
54512;BME280;40419;47.438;19.026;2023-02-19T02:01:11;99902.13;;;9.57;98.48
54512;BME280;40419;47.438;19.026;2023-02-19T02:03:39;99899.81;;;9.54;98.18
54512;BME280;40419;47.438;19.026;2023-02-19T02:06:22;99893.72;;;9.74;96.91
54512;BME280;40419;47.438;19.026;2023-02-19T02:08:55;99895.53;;;9.95;96.25
54512;BME280;40419;47.438;19.026;2023-02-19T02:11:50;99894.25;;;9.91;95.77
54512;BME280;40419;47.438;19.026;2023-02-19T02:14:19;99893.84;;;9.94;95.99
54512;BME280;40419;47.438;19.026;2023-02-19T02:22:18;99890.06;;;9.88;95.91
54512;BME280;40419;47.438;19.026;2023-02-19T02:25:15;99908.38;;;9.86;96.33
54512;BME280;40419;47.438;19.026;2023-02-19T02:38:21;99888.16;;;9.82;99.08
54512;BME280;40419;47.438;19.026;2023-02-19T02:40:51;99880.44;;;9.79;100.00
54512;BME280;40419;47.438;19.026;2023-02-19T02:43:18;99879.84;;;9.84;100.00
54512;BME280;40419;47.438;19.026;2023-02-19T02:45:43;99885.25;;;9.84;100.00
54512;BME280;40419;47.438;19.026;2023-02-19T02:51:22;99877.03;;;9.70;100.00
54512;BME280;40419;47.438;19.026;2023-02-19T02:54:09;99877.25;;;9.69;100.00
54512;BME280;40419;47.438;19.026;2023-02-19T02:56:55;99874.69;;;9.61;100.00
54512;BME280;40419;47.438;19.026;2023-02-19T02:59:24;99879.81;;;9.77;100.00
54512;BME280;40419;47.438;19.026;2023-02-19T03:01:56;99892.28;;;9.78;100.00
54512;BME280;40419;47.438;19.026;2023-02-19T03:05:12;99891.63;;;9.69;100.00
54512;BME280;40419;47.438;19.026;2023-02-19T03:10:44;99877.31;;;9.75;100.00
54512;BME280;40419;47.438;19.026;2023-02-19T03:13:27;99875.53;;;9.61;100.00
54512;BME280;40419;47.438;19.026;2023-02-19T03:16:17;99883.44;;;9.63;100.00
54512;BME280;40419;47.438;19.026;2023-02-19T03:19:04;99890.59;;;9.49;100.00
54512;BME280;40419;47.438;19.026;2023-02-19T03:21:57;99894.00;;;9.57;100.00
54512;BME280;40419;47.438;19.026;2023-02-19T03:24:31;99885.59;;;9.46;100.00
54512;BME280;40419;47.438;19.026;2023-02-19T03:27:22;99900.66;;;9.33;100.00
54512;BME280;40419;47.438;19.026;2023-02-19T03:29:57;99898.28;;;9.45;100.00
54512;BME280;40419;47.438;19.026;2023-02-19T03:32:33;99900.09;;;9.38;100.00
54512;BME280;40419;47.438;19.026;2023-02-19T03:35:09;99890.16;;;9.23;100.00
54512;BME280;40419;47.438;19.026;2023-02-19T03:37:41;99882.25;;;9.22;100.00
54512;BME280;40419;47.438;19.026;2023-02-19T03:40:14;99887.03;;;9.20;100.00
54512;BME280;40419;47.438;19.026;2023-02-19T03:42:58;99885.44;;;9.26;100.00
54512;BME280;40419;47.438;19.026;2023-02-19T03:45:30;99887.81;;;9.14;100.00
54512;BME280;40419;47.438;19.026;2023-02-19T03:48:29;99892.53;;;9.12;100.00
54512;BME280;40419;47.438;19.026;2023-02-19T03:53:33;99893.44;;;8.97;100.00
54512;BME280;40419;47.438;19.026;2023-02-19T03:56:10;99876.97;;;8.92;100.00
54512;BME280;40419;47.438;19.026;2023-02-19T04:01:39;99872.94;;;9.03;100.00
54512;BME280;40419;47.438;19.026;2023-02-19T04:04:20;99889.63;;;8.92;100.00
54512;BME280;40419;47.438;19.026;2023-02-19T04:06:53;99871.06;;;8.82;100.00
54512;BME280;40419;47.438;19.026;2023-02-19T04:09:24;99893.13;;;9.07;100.00
54512;BME280;40419;47.438;19.026;2023-02-19T04:11:58;99892.47;;;9.05;100.00
54512;BME280;40419;47.438;19.026;2023-02-19T04:14:43;99898.91;;;9.04;100.00
54512;BME280;40419;47.438;19.026;2023-02-19T04:17:23;99885.53;;;8.96;100.00
54512;BME280;40419;47.438;19.026;2023-02-19T04:19:51;99896.53;;;8.94;100.00
54512;BME280;40419;47.438;19.026;2023-02-19T04:22:19;99885.72;;;8.94;100.00
54512;BME280;40419;47.438;19.026;2023-02-19T04:24:51;99889.84;;;8.90;100.00
54512;BME280;40419;47.438;19.026;2023-02-19T04:27:20;99887.75;;;8.92;100.00
54512;BME280;40419;47.438;19.026;2023-02-19T04:29:50;99886.50;;;9.10;100.00
54512;BME280;40419;47.438;19.026;2023-02-19T04:32:16;99892.25;;;9.00;100.00
54512;BME280;40419;47.438;19.026;2023-02-19T04:34:44;99880.72;;;8.91;100.00
54512;BME280;40419;47.438;19.026;2023-02-19T04:37:12;99884.63;;;8.89;100.00
54512;BME280;40419;47.438;19.026;2023-02-19T04:39:38;99882.06;;;8.80;100.00
54512;BME280;40419;47.438;19.026;2023-02-19T04:42:06;99882.25;;;8.79;100.00
54512;BME280;40419;47.438;19.026;2023-02-19T04:44:32;99887.75;;;8.71;100.00
54512;BME280;40419;47.438;19.026;2023-02-19T04:47:03;99882.31;;;8.85;100.00
54512;BME280;40419;47.438;19.026;2023-02-19T04:49:31;99887.91;;;8.84;100.00
54512;BME280;40419;47.438;19.026;2023-02-19T04:51:58;99888.16;;;8.89;100.00
54512;BME280;40419;47.438;19.026;2023-02-19T04:54:26;99880.84;;;8.68;100.00
54512;BME280;40419;47.438;19.026;2023-02-19T04:56:58;99891.66;;;8.68;100.00
54512;BME280;40419;47.438;19.026;2023-02-19T04:59:27;99877.13;;;8.69;100.00
54512;BME280;40419;47.438;19.026;2023-02-19T05:01:55;99880.03;;;8.67;100.00
54512;BME280;40419;47.438;19.026;2023-02-19T05:04:22;99871.09;;;8.67;100.00
54512;BME280;40419;47.438;19.026;2023-02-19T05:06:48;99880.50;;;8.71;100.00
54512;BME280;40419;47.438;19.026;2023-02-19T05:09:17;99884.47;;;8.75;100.00
54512;BME280;40419;47.438;19.026;2023-02-19T05:11:45;99878.44;;;8.73;100.00
54512;BME280;40419;47.438;19.026;2023-02-19T05:14:13;99892.84;;;8.80;100.00
54512;BME280;40419;47.438;19.026;2023-02-19T05:16:40;99889.19;;;8.88;100.00
54512;BME280;40419;47.438;19.026;2023-02-19T05:19:10;99876.38;;;8.75;100.00
54512;BME280;40419;47.438;19.026;2023-02-19T05:21:35;99877.44;;;8.74;100.00
54512;BME280;40419;47.438;19.026;2023-02-19T05:24:01;99890.38;;;8.64;100.00
54512;BME280;40419;47.438;19.026;2023-02-19T05:26:32;99892.03;;;8.65;100.00
54512;BME280;40419;47.438;19.026;2023-02-19T05:28:58;99875.59;;;8.60;100.00
54512;BME280;40419;47.438;19.026;2023-02-19T05:31:28;99888.25;;;8.59;100.00
54512;BME280;40419;47.438;19.026;2023-02-19T05:33:55;99879.22;;;8.52;100.00
54512;BME280;40419;47.438;19.026;2023-02-19T05:36:24;99869.00;;;8.47;100.00
54512;BME280;40419;47.438;19.026;2023-02-19T05:38:54;99870.09;;;8.38;100.00
54512;BME280;40419;47.438;19.026;2023-02-19T05:41:28;99867.78;;;8.35;100.00
54512;BME280;40419;47.438;19.026;2023-02-19T05:43:56;99868.72;;;8.27;100.00
54512;BME280;40419;47.438;19.026;2023-02-19T05:46:24;99876.84;;;8.12;100.00
54512;BME280;40419;47.438;19.026;2023-02-19T05:48:53;99876.84;;;8.12;100.00
54512;BME280;40419;47.438;19.026;2023-02-19T05:51:21;99884.16;;;8.04;100.00
54512;BME280;40419;47.438;19.026;2023-02-19T05:53:52;99880.34;;;7.98;100.00
54512;BME280;40419;47.438;19.026;2023-02-19T05:56:38;99886.88;;;8.04;100.00
54512;BME280;40419;47.438;19.026;2023-02-19T05:59:14;99891.97;;;7.98;100.00
54512;BME280;40419;47.438;19.026;2023-02-19T06:01:40;99886.59;;;7.84;100.00
54512;BME280;40419;47.438;19.026;2023-02-19T06:04:06;99903.13;;;7.80;100.00
54512;BME280;40419;47.438;19.026;2023-02-19T06:06:31;99898.00;;;7.86;100.00
54512;BME280;40419;47.438;19.026;2023-02-19T06:08:57;99886.41;;;7.85;100.00
54512;BME280;40419;47.438;19.026;2023-02-19T06:11:25;99881.56;;;7.80;100.00
54512;BME280;40419;47.438;19.026;2023-02-19T06:13:55;99884.25;;;7.80;100.00
54512;BME280;40419;47.438;19.026;2023-02-19T06:16:23;99890.50;;;7.96;100.00
54512;BME280;40419;47.438;19.026;2023-02-19T06:18:49;99894.72;;;7.75;100.00
54512;BME280;40419;47.438;19.026;2023-02-19T06:21:20;99885.53;;;7.85;100.00
54512;BME280;40419;47.438;19.026;2023-02-19T06:23:47;99878.38;;;7.77;100.00
54512;BME280;40419;47.438;19.026;2023-02-19T06:26:23;99880.34;;;7.83;100.00
54512;BME280;40419;47.438;19.026;2023-02-19T06:28:52;99866.47;;;7.71;100.00
54512;BME280;40419;47.438;19.026;2023-02-19T06:31:19;99866.28;;;7.73;100.00
54512;BME280;40419;47.438;19.026;2023-02-19T06:33:49;99868.53;;;7.84;100.00
54512;BME280;40419;47.438;19.026;2023-02-19T06:36:19;99863.13;;;7.69;100.00
54512;BME280;40419;47.438;19.026;2023-02-19T06:38:44;99871.69;;;7.73;100.00
54512;BME280;40419;47.438;19.026;2023-02-19T06:41:13;99863.13;;;7.69;100.00
54512;BME280;40419;47.438;19.026;2023-02-19T06:43:39;99860.16;;;7.64;100.00
54512;BME280;40419;47.438;19.026;2023-02-19T06:46:16;99854.00;;;7.55;100.00
54512;BME280;40419;47.438;19.026;2023-02-19T06:48:43;99850.66;;;7.68;100.00
54512;BME280;40419;47.438;19.026;2023-02-19T06:51:16;99854.41;;;7.67;100.00
54512;BME280;40419;47.438;19.026;2023-02-19T06:53:51;99864.16;;;7.68;100.00
54512;BME280;40419;47.438;19.026;2023-02-19T06:58:52;99862.47;;;7.52;100.00
54512;BME280;40419;47.438;19.026;2023-02-19T07:01:21;99860.13;;;7.49;100.00
54512;BME280;40419;47.438;19.026;2023-02-19T07:03:52;99854.06;;;7.47;100.00
54512;BME280;40419;47.438;19.026;2023-02-19T07:06:20;99856.72;;;7.55;100.00
54512;BME280;40419;47.438;19.026;2023-02-19T07:08:49;99856.22;;;7.52;100.00
54512;BME280;40419;47.438;19.026;2023-02-19T07:11:15;99865.25;;;7.59;100.00
54512;BME280;40419;47.438;19.026;2023-02-19T07:13:41;99875.38;;;7.57;100.00
54512;BME280;40419;47.438;19.026;2023-02-19T07:16:12;99874.38;;;7.58;100.00
54512;BME280;40419;47.438;19.026;2023-02-19T07:18:41;99874.09;;;7.68;100.00
54512;BME280;40419;47.438;19.026;2023-02-19T07:21:11;99875.50;;;7.78;100.00
54512;BME280;40419;47.438;19.026;2023-02-19T07:23:40;99887.84;;;7.73;100.00
54512;BME280;40419;47.438;19.026;2023-02-19T07:26:17;99881.63;;;7.72;100.00
54512;BME280;40419;47.438;19.026;2023-02-19T07:28:47;99878.75;;;7.74;100.00
54512;BME280;40419;47.438;19.026;2023-02-19T07:31:14;99876.63;;;7.84;100.00
54512;BME280;40419;47.438;19.026;2023-02-19T07:33:42;99867.59;;;7.77;100.00
54512;BME280;40419;47.438;19.026;2023-02-19T07:36:08;99859.06;;;7.88;100.00
54512;BME280;40419;47.438;19.026;2023-02-19T07:38:34;99851.25;;;7.78;100.00
54512;BME280;40419;47.438;19.026;2023-02-19T07:41:01;99861.59;;;7.90;100.00
54512;BME280;40419;47.438;19.026;2023-02-19T07:43:29;99854.59;;;7.95;100.00
54512;BME280;40419;47.438;19.026;2023-02-19T07:45:55;99853.94;;;7.93;100.00
54512;BME280;40419;47.438;19.026;2023-02-19T07:48:21;99851.00;;;8.03;100.00
54512;BME280;40419;47.438;19.026;2023-02-19T07:50:53;99848.94;;;8.05;100.00
54512;BME280;40419;47.438;19.026;2023-02-19T07:53:26;99856.09;;;8.13;100.00
54512;BME280;40419;47.438;19.026;2023-02-19T07:55:52;99871.63;;;8.11;100.00
54512;BME280;40419;47.438;19.026;2023-02-19T07:58:17;99872.34;;;8.20;100.00
54512;BME280;40419;47.438;19.026;2023-02-19T08:00:43;99865.00;;;8.13;100.00
54512;BME280;40419;47.438;19.026;2023-02-19T08:03:12;99871.31;;;8.06;100.00
54512;BME280;40419;47.438;19.026;2023-02-19T08:05:39;99881.75;;;8.09;100.00
54512;BME280;40419;47.438;19.026;2023-02-19T08:08:09;99884.63;;;8.07;100.00
54512;BME280;40419;47.438;19.026;2023-02-19T08:10:35;99872.63;;;7.95;100.00
54512;BME280;40419;47.438;19.026;2023-02-19T08:13:22;99884.06;;;8.12;100.00
54512;BME280;40419;47.438;19.026;2023-02-19T08:18:26;99887.94;;;8.39;100.00
54512;BME280;40419;47.438;19.026;2023-02-19T08:20:53;99897.69;;;8.48;100.00
54512;BME280;40419;47.438;19.026;2023-02-19T08:23:22;99892.88;;;8.65;100.00
54512;BME280;40419;47.438;19.026;2023-02-19T08:25:51;99904.06;;;8.62;100.00
54512;BME280;40419;47.438;19.026;2023-02-19T08:28:18;99907.38;;;8.79;100.00
54512;BME280;40419;47.438;19.026;2023-02-19T08:30:47;99899.81;;;8.90;100.00
54512;BME280;40419;47.438;19.026;2023-02-19T08:33:18;99902.00;;;8.64;100.00
54512;BME280;40419;47.438;19.026;2023-02-19T08:35:45;99891.81;;;8.81;100.00
54512;BME280;40419;47.438;19.026;2023-02-19T08:38:14;99889.16;;;9.03;100.00
54512;BME280;40419;47.438;19.026;2023-02-19T08:40:41;99892.28;;;9.07;100.00
54512;BME280;40419;47.438;19.026;2023-02-19T08:43:15;99886.75;;;9.15;100.00
54512;BME280;40419;47.438;19.026;2023-02-19T08:45:44;99876.94;;;9.29;100.00
54512;BME280;40419;47.438;19.026;2023-02-19T08:48:10;99872.53;;;9.28;100.00
54512;BME280;40419;47.438;19.026;2023-02-19T08:50:39;99885.94;;;9.14;100.00
54512;BME280;40419;47.438;19.026;2023-02-19T08:53:05;99893.31;;;9.05;100.00
54512;BME280;40419;47.438;19.026;2023-02-19T08:55:36;99891.84;;;9.03;100.00
54512;BME280;40419;47.438;19.026;2023-02-19T08:58:02;99877.31;;;9.04;100.00
54512;BME280;40419;47.438;19.026;2023-02-19T09:00:31;99883.31;;;9.21;100.00
54512;BME280;40419;47.438;19.026;2023-02-19T09:02:57;99875.38;;;8.98;100.00
54512;BME280;40419;47.438;19.026;2023-02-19T09:05:22;99885.69;;;9.09;100.00
54512;BME280;40419;47.438;19.026;2023-02-19T09:07:48;99885.53;;;9.17;100.00
54512;BME280;40419;47.438;19.026;2023-02-19T09:10:15;99890.94;;;9.17;100.00
54512;BME280;40419;47.438;19.026;2023-02-19T09:12:43;99893.78;;;9.09;100.00
54512;BME280;40419;47.438;19.026;2023-02-19T09:15:09;99886.88;;;9.07;100.00
54512;BME280;40419;47.438;19.026;2023-02-19T09:17:34;99884.63;;;8.89;100.00
54512;BME280;40419;47.438;19.026;2023-02-19T09:20:02;99879.34;;;8.80;100.00
54512;BME280;40419;47.438;19.026;2023-02-19T09:22:28;99872.41;;;8.71;100.00
54512;BME280;40419;47.438;19.026;2023-02-19T09:24:53;99888.06;;;8.61;100.00
54512;BME280;40419;47.438;19.026;2023-02-19T09:27:19;99872.75;;;8.68;100.00
54512;BME280;40419;47.438;19.026;2023-02-19T09:29:47;99880.03;;;8.67;100.00
54512;BME280;40419;47.438;19.026;2023-02-19T09:32:15;99885.31;;;8.76;100.00
54512;BME280;40419;47.438;19.026;2023-02-19T09:34:42;99870.59;;;8.78;100.00
54512;BME280;40419;47.438;19.026;2023-02-19T09:37:10;99874.25;;;8.71;100.00
54512;BME280;40419;47.438;19.026;2023-02-19T09:39:36;99874.63;;;8.67;100.00
54512;BME280;40419;47.438;19.026;2023-02-19T09:42:12;99871.50;;;8.85;100.00
54512;BME280;40419;47.438;19.026;2023-02-19T09:44:47;99863.75;;;8.97;100.00
54512;BME280;40419;47.438;19.026;2023-02-19T09:47:24;99866.81;;;8.94;100.00
54512;BME280;40419;47.438;19.026;2023-02-19T09:49:55;99849.72;;;9.09;100.00
54512;BME280;40419;47.438;19.026;2023-02-19T09:57:39;99860.84;;;9.20;100.00
54512;BME280;40419;47.438;19.026;2023-02-19T10:00:21;99858.69;;;9.37;100.00
54512;BME280;40419;47.438;19.026;2023-02-19T10:06:04;99837.69;;;9.61;100.00
54512;BME280;40419;47.438;19.026;2023-02-19T10:08:34;99840.56;;;9.60;100.00
54512;BME280;40419;47.438;19.026;2023-02-19T10:11:03;99831.44;;;9.61;100.00
54512;BME280;40419;47.438;19.026;2023-02-19T10:13:36;99838.88;;;9.87;100.00
54512;BME280;40419;47.438;19.026;2023-02-19T10:16:11;99830.16;;;9.85;100.00
54512;BME280;40419;47.438;19.026;2023-02-19T10:18:43;99816.25;;;9.94;100.00
54512;BME280;40419;47.438;19.026;2023-02-19T10:21:24;99818.06;;;10.29;100.00
54512;BME280;40419;47.438;19.026;2023-02-19T10:23:53;99808.78;;;10.38;100.00
54512;BME280;40419;47.438;19.026;2023-02-19T10:26:21;99813.22;;;10.53;100.00
54512;BME280;40419;47.438;19.026;2023-02-19T10:28:47;99811.13;;;10.48;100.00
54512;BME280;40419;47.438;19.026;2023-02-19T10:31:19;99808.69;;;10.87;100.00
54512;BME280;40419;47.438;19.026;2023-02-19T10:33:53;99791.44;;;11.14;100.00
54512;BME280;40419;47.438;19.026;2023-02-19T10:38:55;99783.91;;;11.30;100.00
54512;BME280;40419;47.438;19.026;2023-02-19T10:41:23;99776.81;;;11.35;100.00
54512;BME280;40419;47.438;19.026;2023-02-19T10:43:56;99775.38;;;11.20;100.00
54512;BME280;40419;47.438;19.026;2023-02-19T10:46:27;99765.78;;;10.90;100.00
54512;BME280;40419;47.438;19.026;2023-02-19T10:48:56;99753.06;;;10.71;100.00
54512;BME280;40419;47.438;19.026;2023-02-19T10:51:41;99763.88;;;10.71;100.00
54512;BME280;40419;47.438;19.026;2023-02-19T10:56:45;99749.50;;;10.57;100.00
54512;BME280;40419;47.438;19.026;2023-02-19T11:02:13;99739.31;;;10.92;100.00
54512;BME280;40419;47.438;19.026;2023-02-19T11:07:28;99727.97;;;11.56;100.00
54512;BME280;40419;47.438;19.026;2023-02-19T11:09:57;99717.09;;;11.62;100.00
54512;BME280;40419;47.438;19.026;2023-02-19T11:12:29;99710.44;;;11.72;100.00
54512;BME280;40419;47.438;19.026;2023-02-19T11:15:20;99715.00;;;11.78;100.00
54512;BME280;40419;47.438;19.026;2023-02-19T11:23:26;99709.69;;;12.03;100.00
54512;BME280;40419;47.438;19.026;2023-02-19T11:25:56;99693.56;;;12.15;100.00
54512;BME280;40419;47.438;19.026;2023-02-19T11:28:36;99695.72;;;11.99;100.00
54512;BME280;40419;47.438;19.026;2023-02-19T11:31:22;99696.38;;;11.95;100.00
54512;BME280;40419;47.438;19.026;2023-02-19T11:36:37;99681.88;;;12.14;99.85
54512;BME280;40419;47.438;19.026;2023-02-19T11:44:37;99660.81;;;12.10;92.73
54512;BME280;40419;47.438;19.026;2023-02-19T12:01:24;99650.22;;;12.33;92.84
54512;BME280;40419;47.438;19.026;2023-02-19T12:10:27;99604.69;;;12.35;90.55
54512;BME280;40419;47.438;19.026;2023-02-19T12:32:25;99599.19;;;12.42;87.40
54512;BME280;40419;47.438;19.026;2023-02-19T12:43:21;99599.19;;;12.67;84.30
54512;BME280;40419;47.438;19.026;2023-02-19T12:46:06;99586.88;;;12.65;84.10
54512;BME280;40419;47.438;19.026;2023-02-19T12:51:11;99601.81;;;12.55;86.76
54512;BME280;40419;47.438;19.026;2023-02-19T12:53:50;99625.78;;;12.84;85.29
54512;BME280;40419;47.438;19.026;2023-02-19T12:56:25;99627.38;;;12.73;86.44
54512;BME280;40419;47.438;19.026;2023-02-19T12:58:57;99642.28;;;12.64;85.81
54512;BME280;40419;47.438;19.026;2023-02-19T13:01:32;99645.19;;;12.87;85.11
54512;BME280;40419;47.438;19.026;2023-02-19T13:07:07;99636.69;;;13.02;86.33
54512;BME280;40419;47.438;19.026;2023-02-19T13:09:45;99633.06;;;13.08;85.49
54512;BME280;40419;47.438;19.026;2023-02-19T13:12:47;99618.56;;;13.15;84.17
54512;BME280;40419;47.438;19.026;2023-02-19T13:15:31;99626.91;;;13.20;83.40
54512;BME280;40419;47.438;19.026;2023-02-19T13:17:59;99606.56;;;13.22;84.13
54512;BME280;40419;47.438;19.026;2023-02-19T13:20:38;99594.34;;;13.13;84.54
54512;BME280;40419;47.438;19.026;2023-02-19T13:23:38;99612.09;;;13.16;85.06
54512;BME280;40419;47.438;19.026;2023-02-19T13:29:09;99592.31;;;13.08;84.99
54512;BME280;40419;47.438;19.026;2023-02-19T13:37:30;99597.06;;;12.94;86.45
54512;BME280;40419;47.438;19.026;2023-02-19T13:39:59;99595.09;;;12.83;86.03
54512;BME280;40419;47.438;19.026;2023-02-19T13:42:27;99605.56;;;12.80;86.66
54512;BME280;40419;47.438;19.026;2023-02-19T13:44:58;99615.25;;;12.94;84.14
54512;BME280;40419;47.438;19.026;2023-02-19T13:50:24;99631.94;;;12.72;88.33
54512;BME280;40419;47.438;19.026;2023-02-19T13:52:53;99636.47;;;12.28;96.64
54512;BME280;40419;47.438;19.026;2023-02-19T13:55:44;99650.53;;;11.14;100.00
54512;BME280;40419;47.438;19.026;2023-02-19T13:58:51;99662.44;;;11.07;100.00
54512;BME280;40419;47.438;19.026;2023-02-19T14:33:37;99757.25;;;9.07;100.00
54512;BME280;40419;47.438;19.026;2023-02-19T14:36:28;99755.84;;;9.11;100.00
54512;BME280;40419;47.438;19.026;2023-02-19T14:39:39;99767.41;;;9.33;100.00
54512;BME280;40419;47.438;19.026;2023-02-19T14:41:49;99764.63;;;9.19;100.00
54512;BME280;40419;47.438;19.026;2023-02-19T14:44:19;99781.13;;;9.03;100.00
54512;BME280;40419;47.438;19.026;2023-02-19T14:46:50;99790.31;;;8.87;100.00
54512;BME280;40419;47.438;19.026;2023-02-19T14:49:31;99782.75;;;8.76;100.00
54512;BME280;40419;47.438;19.026;2023-02-19T14:52:10;99779.47;;;8.80;100.00
54512;BME280;40419;47.438;19.026;2023-02-19T14:54:57;99782.94;;;8.74;100.00
54512;BME280;40419;47.438;19.026;2023-02-19T14:57:46;99785.50;;;8.82;100.00
54512;BME280;40419;47.438;19.026;2023-02-19T15:00:26;99771.38;;;8.80;100.00
54512;BME280;40419;47.438;19.026;2023-02-19T15:02:55;99778.31;;;8.90;100.00
54512;BME280;40419;47.438;19.026;2023-02-19T15:07:51;99781.31;;;8.80;100.00
54512;BME280;40419;47.438;19.026;2023-02-19T15:10:18;99805.16;;;8.98;100.00
54512;BME280;40419;47.438;19.026;2023-02-19T15:12:56;99830.63;;;8.89;100.00
54512;BME280;40419;47.438;19.026;2023-02-19T15:15:28;99823.88;;;8.99;100.00
54512;BME280;40419;47.438;19.026;2023-02-19T15:18:00;99845.41;;;8.93;100.00
54512;BME280;40419;47.438;19.026;2023-02-19T15:20:28;99832.50;;;8.88;100.00
54512;BME280;40419;47.438;19.026;2023-02-19T15:23:18;99828.63;;;8.76;100.00
54512;BME280;40419;47.438;19.026;2023-02-19T15:25:47;99829.84;;;8.73;100.00
54512;BME280;40419;47.438;19.026;2023-02-19T15:30:51;99837.53;;;8.55;100.00
54512;BME280;40419;47.438;19.026;2023-02-19T15:33:30;99840.88;;;8.57;100.00
54512;BME280;40419;47.438;19.026;2023-02-19T15:36:02;99826.84;;;8.46;100.00
54512;BME280;40419;47.438;19.026;2023-02-19T15:38:28;99828.78;;;8.52;100.00
54512;BME280;40419;47.438;19.026;2023-02-19T15:40:54;99829.06;;;8.43;100.00
54512;BME280;40419;47.438;19.026;2023-02-19T15:46:00;99830.78;;;8.29;100.00
54512;BME280;40419;47.438;19.026;2023-02-19T15:48:41;99813.09;;;8.26;100.00
54512;BME280;40419;47.438;19.026;2023-02-19T15:51:15;99810.97;;;8.22;100.00
54512;BME280;40419;47.438;19.026;2023-02-19T15:53:48;99803.50;;;8.24;100.00
54512;BME280;40419;47.438;19.026;2023-02-19T15:56:17;99806.63;;;8.42;100.00
54512;BME280;40419;47.438;19.026;2023-02-19T15:58:51;99799.13;;;8.23;100.00
54512;BME280;40419;47.438;19.026;2023-02-19T16:08:27;99804.53;;;8.23;100.00
54512;BME280;40419;47.438;19.026;2023-02-19T16:10:56;99815.13;;;8.24;100.00
54512;BME280;40419;47.438;19.026;2023-02-19T16:13:27;99830.84;;;8.36;100.00
54512;BME280;40419;47.438;19.026;2023-02-19T16:18:28;99834.84;;;8.40;100.00